Time;durP1;ratioP1;P1;durP2;ratioP2;P2;SDS_P1;SDS_P2;PMS_P1;PMS_P2;Temp;Humidity;BMP_temperature;BMP_pressure;BME280_temperature;BME280_humidity;BME280_pressure;Samples;Min_cycle;Max_cycle;Signal;HPM_P1;HPM_P2
2021/07/04 00:00:23;;;;;;;;;;;;;;;16.41;60.13;100632.59;1648247;86;20389;-75
2021/07/04 00:02:52;;;;;;;;;;;;;;;16.38;60.19;100632.71;1646025;85;20165;-75
2021/07/04 00:05:19;;;;;;;;;;;;;;;16.35;60.21;100636.29;1638545;86;20103;-75
2021/07/04 00:07:45;;;;;;;;;;;;;;;16.31;60.21;100633.41;1638899;86;20135;-75
2021/07/04 00:10:16;;;;;;;;;;;;;;;16.27;60.29;100636.19;1638837;86;20127;-75
2021/07/04 00:12:42;;;;;;;;;;;;;;;16.24;60.34;100641.08;1638366;86;20099;-75
2021/07/04 00:15:10;;;;;;;;;;;;;;;16.20;60.34;100639.04;1636355;86;20158;-75
2021/07/04 00:17:37;;;;;;;;;;;;;;;16.16;60.39;100637.91;1632084;86;20484;-76
2021/07/04 00:20:12;;;;;;;;;;;;;;;16.10;60.45;100639.03;1636751;86;20533;-76
2021/07/04 00:22:38;;;;;;;;;;;;;;;16.03;60.46;100638.02;1637073;86;20233;-76
2021/07/04 00:25:08;;;;;;;;;;;;;;;16.00;60.62;100643.34;1651804;85;20525;-76
2021/07/04 00:27:35;;;;;;;;;;;;;;;15.98;60.70;100640.80;1652263;85;20628;-76
2021/07/04 00:30:01;;;;;;;;;;;;;;;15.97;60.76;100643.46;1652601;86;20142;-76
2021/07/04 00:32:27;;;;;;;;;;;;;;;15.95;60.82;100642.67;1652591;85;20167;-76
2021/07/04 00:34:53;;;;;;;;;;;;;;;15.96;60.85;100642.61;1652001;86;20165;-76
2021/07/04 00:37:21;;;;;;;;;;;;;;;15.98;60.94;100633.42;1652110;85;20503;-76
2021/07/04 00:39:47;;;;;;;;;;;;;;;15.99;60.97;100636.43;1652378;85;20184;-76
2021/07/04 00:42:14;;;;;;;;;;;;;;;15.99;61.04;100634.67;1651955;86;20776;-75
2021/07/04 00:44:42;;;;;;;;;;;;;;;15.99;61.07;100633.82;1648102;85;20524;-76
2021/07/04 00:47:08;;;;;;;;;;;;;;;15.99;61.16;100626.00;1651728;85;20160;-75
2021/07/04 00:49:34;;;;;;;;;;;;;;;16.00;61.26;100621.18;1651811;85;20157;-76
2021/07/04 00:52:01;;;;;;;;;;;;;;;16.03;61.31;100622.36;1651469;86;20209;-75
2021/07/04 00:54:28;;;;;;;;;;;;;;;16.06;61.39;100627.47;1651701;85;20200;-76
2021/07/04 00:56:54;;;;;;;;;;;;;;;16.07;61.38;100616.97;1651018;85;20455;-76
2021/07/04 00:59:20;;;;;;;;;;;;;;;16.09;61.45;100619.52;1651276;85;20440;-75
2021/07/04 01:01:47;;;;;;;;;;;;;;;16.09;61.52;100621.67;1651636;86;20190;-75
2021/07/04 01:04:13;;;;;;;;;;;;;;;16.12;61.60;100612.85;1648538;85;20461;-75
2021/07/04 01:06:41;;;;;;;;;;;;;;;16.14;61.68;100603.20;1654258;85;20437;-75
2021/07/04 01:09:07;;;;;;;;;;;;;;;16.17;61.70;100601.33;1654038;85;20130;-75
2021/07/04 01:11:34;;;;;;;;;;;;;;;16.18;61.75;100604.33;1654136;85;20114;-75
2021/07/04 01:14:01;;;;;;;;;;;;;;;16.21;61.80;100597.69;1654369;86;20461;-75
2021/07/04 01:16:27;;;;;;;;;;;;;;;16.23;61.86;100596.33;1654174;86;20438;-75
2021/07/04 01:18:53;;;;;;;;;;;;;;;16.23;61.84;100597.17;1628548;85;20266;-75
2021/07/04 01:21:22;;;;;;;;;;;;;;;16.26;61.91;100599.27;1654319;85;20445;-75
2021/07/04 01:23:48;;;;;;;;;;;;;;;16.27;61.97;100586.62;1653964;85;20414;-75
2021/07/04 01:26:14;;;;;;;;;;;;;;;16.27;61.98;100582.25;1653864;86;20638;-75
2021/07/04 01:28:40;;;;;;;;;;;;;;;16.28;62.03;100589.16;1654025;86;20421;-75
2021/07/04 01:31:06;;;;;;;;;;;;;;;16.29;62.05;100595.23;1639985;86;20195;-75
2021/07/04 01:33:32;;;;;;;;;;;;;;;16.26;62.10;100597.52;1654384;85;20098;-75
2021/07/04 01:35:58;;;;;;;;;;;;;;;16.26;62.12;100594.90;1646567;87;20413;-75
2021/07/04 01:38:24;;;;;;;;;;;;;;;16.21;62.17;100595.53;1646652;87;20260;-75
2021/07/04 01:40:53;;;;;;;;;;;;;;;16.19;62.23;100605.19;1646756;87;20106;-75
2021/07/04 01:43:20;;;;;;;;;;;;;;;16.19;62.29;100601.27;1646452;87;20106;-75
2021/07/04 01:45:47;;;;;;;;;;;;;;;16.17;62.34;100600.02;1646775;87;20454;-75
2021/07/04 01:48:14;;;;;;;;;;;;;;;16.14;62.42;100601.45;1646919;87;20126;-75
2021/07/04 01:50:42;;;;;;;;;;;;;;;16.14;62.46;100603.20;1630021;87;20406;-75
2021/07/04 01:53:08;;;;;;;;;;;;;;;16.15;62.49;100597.08;1646381;87;20456;-75
2021/07/04 01:55:35;;;;;;;;;;;;;;;16.13;62.46;100594.53;1646850;87;20418;-75
2021/07/04 01:58:01;;;;;;;;;;;;;;;16.13;62.52;100596.29;1646417;85;20114;-75
2021/07/04 02:00:30;;;;;;;;;;;;;;;16.11;62.56;100598.14;1646343;85;20127;-75
2021/07/04 02:03:00;;;;;;;;;;;;;;;16.09;62.56;100598.66;1640185;86;20430;-75
2021/07/04 02:05:26;;;;;;;;;;;;;;;16.04;62.58;100601.44;1631695;87;20098;-75
2021/07/04 02:07:52;;;;;;;;;;;;;;;16.00;62.69;100606.37;1646923;87;20139;-75
2021/07/04 02:10:23;;;;;;;;;;;;;;;15.98;62.71;100606.04;1646495;87;20442;-75
2021/07/04 02:12:50;;;;;;;;;;;;;;;15.97;62.74;100605.64;1646501;87;20459;-75
2021/07/04 02:15:19;;;;;;;;;;;;;;;15.93;62.76;100604.91;1646929;86;20131;-75
2021/07/04 02:17:46;;;;;;;;;;;;;;;15.91;62.81;100608.48;1646522;87;20129;-75
2021/07/04 02:20:24;;;;;;;;;;;;;;;15.87;62.83;100610.36;1646640;87;20509;-75
2021/07/04 02:22:51;;;;;;;;;;;;;;;15.83;62.79;100610.92;1646594;86;20417;-75
2021/07/04 02:25:17;;;;;;;;;;;;;;;15.75;62.84;100609.06;1646723;86;20425;-75
2021/07/04 02:27:43;;;;;;;;;;;;;;;15.70;62.89;100610.98;1630555;85;20418;-75
2021/07/04 02:30:10;;;;;;;;;;;;;;;15.67;62.97;100612.41;1646642;87;20165;-75
2021/07/04 02:32:36;;;;;;;;;;;;;;;15.66;63.10;100612.01;1648997;85;20135;-75
2021/07/04 02:35:06;;;;;;;;;;;;;;;15.64;63.11;100609.91;1651728;86;20130;-75
2021/07/04 02:37:32;;;;;;;;;;;;;;;15.63;63.17;100612.57;1654284;85;20114;-75
2021/07/04 02:39:58;;;;;;;;;;;;;;;15.60;63.18;100615.32;1654054;86;20169;-75
2021/07/04 02:42:24;;;;;;;;;;;;;;;15.58;63.20;100612.77;1654157;86;20429;-75
2021/07/04 02:44:50;;;;;;;;;;;;;;;15.55;63.20;100614.16;1654533;85;20255;-74
2021/07/04 02:47:16;;;;;;;;;;;;;;;15.53;63.20;100614.66;1654122;86;20697;-75
2021/07/04 02:49:55;;;;;;;;;;;;;;;15.50;63.23;100621.29;1654308;85;20126;-75
2021/07/04 02:52:22;;;;;;;;;;;;;;;15.49;63.30;100628.71;1654229;85;20413;-75
2021/07/04 02:54:48;;;;;;;;;;;;;;;15.46;63.33;100624.91;1654235;86;20114;-75
2021/07/04 02:57:14;;;;;;;;;;;;;;;15.42;63.29;100624.17;1653901;85;20164;-75
2021/07/04 02:59:40;;;;;;;;;;;;;;;15.41;63.33;100623.77;1656395;85;20161;-75
2021/07/04 03:02:06;;;;;;;;;;;;;;;15.38;63.47;100625.19;1648831;86;20272;-75
2021/07/04 03:04:32;;;;;;;;;;;;;;;15.37;63.44;100629.99;1654684;85;20689;-75
2021/07/04 03:07:00;;;;;;;;;;;;;;;15.33;63.41;100627.09;1651670;85;20202;-75
2021/07/04 03:09:26;;;;;;;;;;;;;;;15.26;63.41;100619.09;1652084;86;20193;-75
2021/07/04 03:11:52;;;;;;;;;;;;;;;15.22;63.53;100619.66;1651789;85;20241;-75
2021/07/04 03:14:18;;;;;;;;;;;;;;;15.21;63.53;100624.92;1652048;85;20184;-75
2021/07/04 03:16:44;;;;;;;;;;;;;;;15.19;63.65;100622.37;1651801;86;20225;-75
2021/07/04 03:19:10;;;;;;;;;;;;;;;15.20;63.66;100627.98;1652029;85;20247;-75
2021/07/04 03:21:36;;;;;;;;;;;;;;;15.16;63.74;100628.98;1588973;85;5000476;-76
2021/07/04 03:24:02;;;;;;;;;;;;;;;15.15;63.83;100631.19;1652006;86;20200;-76
2021/07/04 03:26:28;;;;;;;;;;;;;;;15.17;63.98;100629.84;1651820;85;20611;-75
2021/07/04 03:29:04;;;;;;;;;;;;;;;15.17;64.02;100628.53;1651730;85;20169;-75
2021/07/04 03:31:30;;;;;;;;;;;;;;;15.21;64.16;100621.86;1651938;86;20188;-75
2021/07/04 03:33:56;;;;;;;;;;;;;;;15.29;64.18;100628.11;1660666;85;20223;-75
2021/07/04 03:36:22;;;;;;;;;;;;;;;15.37;64.23;100629.14;1651925;86;20709;-75
2021/07/04 03:38:48;;;;;;;;;;;;;;;15.45;64.28;100631.88;1651869;86;20165;-75
2021/07/04 03:41:14;;;;;;;;;;;;;;;15.55;64.35;100633.70;1651489;86;20296;-75
2021/07/04 03:43:40;;;;;;;;;;;;;;;15.65;64.38;100632.47;1651325;86;20236;-75
2021/07/04 03:46:06;;;;;;;;;;;;;;;15.74;64.41;100639.95;1651758;85;20203;-75
2021/07/04 03:48:32;;;;;;;;;;;;;;;15.82;64.42;100644.88;1651490;86;20206;-76
2021/07/04 03:50:58;;;;;;;;;;;;;;;15.90;64.45;100641.54;1651811;86;20220;-76
2021/07/04 03:53:25;;;;;;;;;;;;;;;15.98;64.49;100642.10;1651915;86;20197;-76
2021/07/04 03:55:51;;;;;;;;;;;;;;;16.08;64.57;100646.52;1651934;85;20205;-75
2021/07/04 03:58:17;;;;;;;;;;;;;;;16.18;64.59;100643.92;1651491;86;20201;-76
2021/07/04 04:00:43;;;;;;;;;;;;;;;16.30;64.60;100643.91;1651895;85;20180;-75
2021/07/04 04:03:09;;;;;;;;;;;;;;;16.40;64.68;100643.48;1660242;85;20216;-76
2021/07/04 04:05:41;;;;;;;;;;;;;;;16.52;64.68;100637.78;1651714;86;20194;-75
2021/07/04 04:08:07;;;;;;;;;;;;;;;16.65;64.71;100642.51;1651302;85;20252;-75
2021/07/04 04:10:34;;;;;;;;;;;;;;;16.82;64.77;100636.14;1651792;86;20220;-75
2021/07/04 04:13:01;;;;;;;;;;;;;;;17.09;65.00;100634.14;1651640;86;20197;-75
2021/07/04 04:15:27;;;;;;;;;;;;;;;17.37;64.78;100633.78;1654631;86;20122;-75
2021/07/04 04:17:56;;;;;;;;;;;;;;;17.51;64.54;100639.25;1648371;86;20778;-75
2021/07/04 04:20:21;;;;;;;;;;;;;;;17.59;64.50;100636.30;1647023;87;20154;-75
2021/07/04 04:22:47;;;;;;;;;;;;;;;17.64;64.52;100633.02;1645943;87;20180;-75
2021/07/04 04:25:13;;;;;;;;;;;;;;;17.70;64.51;100634.05;1646062;86;20492;-77
2021/07/04 04:27:41;;;;;;;;;;;;;;;17.71;64.50;100637.91;1646012;85;20198;-77
2021/07/04 04:30:08;;;;;;;;;;;;;;;17.72;64.54;100638.30;1646134;87;20197;-77
2021/07/04 04:32:34;;;;;;;;;;;;;;;17.75;64.55;100641.23;1637061;86;20229;-76
2021/07/04 04:35:01;;;;;;;;;;;;;;;17.78;64.64;100644.56;1643246;86;20189;-76
2021/07/04 04:37:27;;;;;;;;;;;;;;;17.85;64.67;100643.83;1630834;87;20213;-76
2021/07/04 04:39:53;;;;;;;;;;;;;;;17.91;64.71;100644.00;1591209;86;3376276;-76
2021/07/04 04:42:19;;;;;;;;;;;;;;;17.96;64.74;100638.95;1639925;86;20206;-76
2021/07/04 04:44:45;;;;;;;;;;;;;;;18.05;64.81;100645.07;1641699;85;20216;-76
2021/07/04 04:47:11;;;;;;;;;;;;;;;18.17;64.86;100650.20;1640519;85;20213;-77
2021/07/04 04:49:37;;;;;;;;;;;;;;;18.28;64.80;100649.20;1647787;85;20185;-76
2021/07/04 04:52:05;;;;;;;;;;;;;;;18.31;64.71;100643.83;1644478;85;20558;-76
2021/07/04 04:54:31;;;;;;;;;;;;;;;18.38;64.79;100645.23;1644268;86;20206;-76
2021/07/04 04:57:05;;;;;;;;;;;;;;;18.48;64.86;100649.56;1646652;85;20110;-76
2021/07/04 04:59:25;;;;;;;;;;;;;;;18.58;64.83;100652.59;1651687;85;20165;-75
2021/07/04 05:01:51;;;;;;;;;;;;;;;18.74;65.01;100653.09;1641049;85;20178;-75
2021/07/04 05:04:17;;;;;;;;;;;;;;;19.10;65.21;100649.09;1631614;86;20177;-75
2021/07/04 05:06:43;;;;;;;;;;;;;;;19.68;65.23;100657.89;1631287;86;20191;-75
2021/07/04 05:09:09;;;;;;;;;;;;;;;20.29;64.97;100654.98;1623747;86;20210;-75
2021/07/04 05:11:35;;;;;;;;;;;;;;;20.90;64.97;100654.14;1629560;86;20174;-75
2021/07/04 05:14:01;;;;;;;;;;;;;;;21.56;64.68;100646.66;1634345;86;20193;-75
2021/07/04 05:16:28;;;;;;;;;;;;;;;22.19;64.13;100651.50;1629966;86;20201;-75
2021/07/04 05:18:53;;;;;;;;;;;;;;;22.77;63.98;100656.45;1629031;86;20412;-75
2021/07/04 05:21:19;;;;;;;;;;;;;;;23.37;63.79;100659.03;1621036;86;20734;-75
2021/07/04 05:23:45;;;;;;;;;;;;;;;23.90;63.54;100662.39;1606353;87;20209;-75
2021/07/04 05:26:12;;;;;;;;;;;;;;;24.39;63.10;100655.76;1623158;87;20211;-75
2021/07/04 05:28:44;;;;;;;;;;;;;;;24.86;62.84;100654.02;1625009;86;20186;-75
2021/07/04 05:31:10;;;;;;;;;;;;;;;25.38;62.74;100650.91;1635129;86;20186;-75
2021/07/04 05:33:36;;;;;;;;;;;;;;;25.90;62.44;100661.41;1636407;86;20243;-76
2021/07/04 05:36:03;;;;;;;;;;;;;;;26.38;62.26;100654.84;1636894;86;20194;-76
2021/07/04 05:38:35;;;;;;;;;;;;;;;26.62;62.01;100652.44;1639686;86;20178;-76
2021/07/04 05:41:00;;;;;;;;;;;;;;;26.99;61.95;100646.28;1635444;86;20221;-75
2021/07/04 05:43:26;;;;;;;;;;;;;;;27.48;61.82;100654.87;1631933;86;20197;-75
2021/07/04 05:45:52;;;;;;;;;;;;;;;27.87;61.72;100651.05;1632219;86;20129;-75
2021/07/04 05:48:20;;;;;;;;;;;;;;;28.30;61.22;100652.08;1636045;86;20225;-75
2021/07/04 05:50:48;;;;;;;;;;;;;;;28.38;60.98;100654.05;1630687;86;20200;-75
2021/07/04 05:53:15;;;;;;;;;;;;;;;28.70;60.95;100658.60;1622890;86;20237;-75
2021/07/04 05:55:41;;;;;;;;;;;;;;;29.16;60.67;100649.04;1628241;86;20157;-75
2021/07/04 05:58:07;;;;;;;;;;;;;;;29.49;60.29;100653.05;1624502;87;20221;-76
2021/07/04 06:00:35;;;;;;;;;;;;;;;29.75;60.01;100655.38;1629152;86;20189;-76
2021/07/04 06:03:04;;;;;;;;;;;;;;;29.98;59.84;100646.00;1639386;86;20191;-76
2021/07/04 06:05:30;;;;;;;;;;;;;;;30.20;59.29;100647.92;1635537;86;20173;-76
2021/07/04 06:07:56;;;;;;;;;;;;;;;30.18;59.29;100640.56;1628016;86;20203;-76
2021/07/04 06:10:23;;;;;;;;;;;;;;;30.17;59.05;100648.22;1634097;86;20199;-76
2021/07/04 06:12:49;;;;;;;;;;;;;;;30.24;58.91;100640.80;1636820;86;20194;-76
2021/07/04 06:15:15;;;;;;;;;;;;;;;30.16;58.50;100640.70;1636171;86;20476;-76
2021/07/04 06:17:41;;;;;;;;;;;;;;;30.15;58.41;100635.55;1639018;86;20177;-76
2021/07/04 06:20:10;;;;;;;;;;;;;;;30.27;58.33;100636.49;1636076;87;20214;-76
2021/07/04 06:22:37;;;;;;;;;;;;;;;30.43;58.15;100635.82;1629187;86;20194;-76
2021/07/04 06:25:08;;;;;;;;;;;;;;;30.30;57.75;100633.52;1639694;86;20110;-76
2021/07/04 06:27:34;;;;;;;;;;;;;;;30.38;57.43;100639.94;1637859;86;20098;-79
2021/07/04 06:30:00;;;;;;;;;;;;;;;30.47;57.05;100643.03;1636746;86;20090;-79
2021/07/04 06:32:26;;;;;;;;;;;;;;;30.33;56.81;100639.55;1641542;86;20177;-79
2021/07/04 06:34:53;;;;;;;;;;;;;;;30.38;56.72;100638.59;1640563;86;20143;-79
2021/07/04 06:37:19;;;;;;;;;;;;;;;30.27;56.35;100636.49;1642871;85;20193;-79
2021/07/04 06:39:45;;;;;;;;;;;;;;;30.09;56.30;100632.99;1650672;85;20181;-78
2021/07/04 06:42:11;;;;;;;;;;;;;;;30.04;56.13;100633.09;1643706;86;20172;-77
2021/07/04 06:44:37;;;;;;;;;;;;;;;30.20;55.96;100624.75;1649183;85;20241;-77
2021/07/04 06:47:06;;;;;;;;;;;;;;;30.32;55.36;100627.20;1648783;85;20333;-77
2021/07/04 06:49:32;;;;;;;;;;;;;;;30.10;55.19;100624.50;1648535;85;20159;-77
2021/07/04 06:51:59;;;;;;;;;;;;;;;30.14;55.07;100627.20;1647019;87;20474;-76
2021/07/04 06:54:25;;;;;;;;;;;;;;;30.21;54.88;100629.09;1645765;85;20200;-76
2021/07/04 06:56:51;;;;;;;;;;;;;;;30.46;54.51;100629.34;1648563;85;20114;-76
2021/07/04 06:59:17;;;;;;;;;;;;;;;30.61;54.07;100626.02;1649518;85;20102;-76
2021/07/04 07:01:43;;;;;;;;;;;;;;;30.65;53.96;100626.55;1651053;85;20157;-76
2021/07/04 07:04:11;;;;;;;;;;;;;;;30.64;53.59;100621.36;1654188;85;20110;-76
2021/07/04 07:06:37;;;;;;;;;;;;;;;30.47;53.56;100620.34;1650383;85;20107;-76
2021/07/04 07:09:03;;;;;;;;;;;;;;;30.56;53.32;100614.92;1644988;85;20112;-77
2021/07/04 07:11:29;;;;;;;;;;;;;;;30.75;53.28;100612.59;1641874;85;20228;-77
2021/07/04 07:13:55;;;;;;;;;;;;;;;31.00;52.96;100608.27;1644576;86;20157;-77
2021/07/04 07:16:20;;;;;;;;;;;;;;;31.25;52.91;100611.94;1649779;86;20161;-77
2021/07/04 07:18:47;;;;;;;;;;;;;;;31.40;52.60;100610.86;1651885;86;20122;-77
2021/07/04 07:21:13;;;;;;;;;;;;;;;31.47;52.18;100607.39;1648656;85;20168;-77
2021/07/04 07:23:39;;;;;;;;;;;;;;;31.67;52.06;100601.80;1642871;85;20134;-77
2021/07/04 07:26:05;;;;;;;;;;;;;;;31.74;51.65;100603.67;1646343;85;20752;-77
2021/07/04 07:28:31;;;;;;;;;;;;;;;31.86;51.62;100601.53;1651882;85;20173;-77
2021/07/04 07:30:57;;;;;;;;;;;;;;;32.04;51.55;100590.72;1649555;86;20102;-77
2021/07/04 07:33:23;;;;;;;;;;;;;;;32.17;51.06;100593.76;1655884;85;20247;-77
2021/07/04 07:35:51;;;;;;;;;;;;;;;32.09;50.93;100597.25;1647318;86;20098;-77
2021/07/04 07:38:18;;;;;;;;;;;;;;;32.22;50.84;100592.80;1636219;86;20103;-77
2021/07/04 07:40:44;;;;;;;;;;;;;;;32.38;50.70;100590.11;1635461;86;20102;-77
2021/07/04 07:43:10;;;;;;;;;;;;;;;32.37;50.41;100595.12;1637437;86;20154;-77
2021/07/04 07:45:36;;;;;;;;;;;;;;;32.50;50.48;100597.31;1638786;86;20182;-77
2021/07/04 07:48:02;;;;;;;;;;;;;;;32.68;50.19;100591.80;1638424;86;20182;-77
2021/07/04 07:50:28;;;;;;;;;;;;;;;32.84;49.88;100583.24;1638029;86;20221;-77
2021/07/04 07:52:54;;;;;;;;;;;;;;;32.98;49.65;100584.39;1639074;87;20141;-77
2021/07/04 07:55:20;;;;;;;;;;;;;;;32.79;49.13;100577.56;1637441;86;20808;-77
2021/07/04 07:57:48;;;;;;;;;;;;;;;32.64;48.80;100577.91;1640003;86;20186;-76
2021/07/04 08:00:15;;;;;;;;;;;;;;;32.40;48.54;100577.90;1634077;86;20221;-76
2021/07/04 08:02:41;;;;;;;;;;;;;;;32.24;48.35;100571.53;1641149;86;20194;-76
2021/07/04 08:05:08;;;;;;;;;;;;;;;31.83;48.20;100577.79;1640207;86;20267;-76
2021/07/04 08:07:36;;;;;;;;;;;;;;;31.30;47.96;100573.56;1636988;86;20108;-76
2021/07/04 08:10:04;;;;;;;;;;;;;;;30.80;47.88;100566.23;1642550;86;20123;-77
2021/07/04 08:12:31;;;;;;;;;;;;;;;30.65;48.03;100558.98;1640198;86;20147;-77
2021/07/04 08:14:57;;;;;;;;;;;;;;;30.65;47.79;100557.14;1638087;86;20131;-77
2021/07/04 08:17:23;;;;;;;;;;;;;;;30.61;47.42;100558.45;1638494;86;20138;-77
2021/07/04 08:19:49;;;;;;;;;;;;;;;30.56;47.24;100554.88;1639098;86;20091;-77
2021/07/04 08:22:15;;;;;;;;;;;;;;;30.39;47.03;100555.73;1642412;86;20144;-77
2021/07/04 08:24:41;;;;;;;;;;;;;;;30.35;47.09;100556.19;1642558;87;20201;-77
2021/07/04 08:27:07;;;;;;;;;;;;;;;30.34;46.80;100546.51;1642533;86;20729;-77
2021/07/04 08:29:33;;;;;;;;;;;;;;;30.19;46.59;100548.38;1643556;86;20217;-77
2021/07/04 08:32:00;;;;;;;;;;;;;;;29.79;46.38;100552.80;1642318;86;20153;-77
2021/07/04 08:34:28;;;;;;;;;;;;;;;29.57;46.53;100551.90;1641544;86;20090;-76
2021/07/04 08:36:54;;;;;;;;;;;;;;;29.30;46.28;100544.70;1651811;85;20134;-77
2021/07/04 08:39:20;;;;;;;;;;;;;;;29.16;46.29;100550.01;1649801;85;20221;-77
2021/07/04 08:41:49;;;;;;;;;;;;;;;29.04;46.27;100547.20;1648342;85;20997;-77
2021/07/04 08:44:15;;;;;;;;;;;;;;;29.12;46.26;100545.95;1644861;85;20572;-76
2021/07/04 08:46:45;;;;;;;;;;;;;;;29.20;46.07;100546.06;1638747;85;21684;-76
2021/07/04 08:49:15;;;;;;;;;;;;;;;29.27;45.83;100547.16;1641787;85;20189;-77
2021/07/04 08:51:41;;;;;;;;;;;;;;;29.13;45.75;100548.13;1645708;86;20978;-77
2021/07/04 08:54:08;;;;;;;;;;;;;;;29.04;45.76;100548.53;1644000;87;20177;-76
2021/07/04 08:56:36;;;;;;;;;;;;;;;28.99;45.51;100549.46;1646466;86;20202;-76
2021/07/04 08:59:02;;;;;;;;;;;;;;;28.79;45.74;100555.78;1646116;85;20157;-76
2021/07/04 09:01:28;;;;;;;;;;;;;;;28.64;45.45;100550.90;1651694;86;20113;-76
2021/07/04 09:04:10;;;;;;;;;;;;;;;28.54;45.36;100550.09;1650789;86;20138;-76
2021/07/04 09:06:44;;;;;;;;;;;;;;;28.40;45.36;100547.03;1648918;86;20210;-77
2021/07/04 09:09:27;;;;;;;;;;;;;;;28.61;45.19;100546.35;1648403;87;20134;-77
2021/07/04 09:12:00;;;;;;;;;;;;;;;28.78;45.19;100551.44;1650343;86;20134;-77
2021/07/04 09:14:41;;;;;;;;;;;;;;;28.97;45.06;100547.44;1651080;86;20119;-77
2021/07/04 09:17:10;;;;;;;;;;;;;;;29.23;45.01;100550.27;1649246;87;20134;-77
2021/07/04 09:20:02;;;;;;;;;;;;;;;29.38;44.68;100555.46;1647174;87;20126;-77
2021/07/04 09:22:29;;;;;;;;;;;;;;;29.10;44.71;100545.78;1650530;87;20130;-77
2021/07/04 09:25:17;;;;;;;;;;;;;;;29.03;44.52;100552.67;1649361;87;20114;-77
2021/07/04 09:28:03;;;;;;;;;;;;;;;28.84;44.44;100553.06;1639918;85;20495;-77
2021/07/04 09:30:38;;;;;;;;;;;;;;;28.57;44.25;100553.81;1650045;87;20090;-77
2021/07/04 09:33:16;;;;;;;;;;;;;;;28.36;44.33;100549.62;1651409;86;20097;-77
2021/07/04 09:35:57;;;;;;;;;;;;;;;28.19;44.23;100550.62;1652161;86;20152;-77
2021/07/04 09:38:25;;;;;;;;;;;;;;;28.09;44.25;100550.27;1642985;87;20106;-74
2021/07/04 09:40:53;;;;;;;;;;;;;;;28.08;44.29;100549.92;1641285;87;20193;-74
2021/07/04 09:43:20;;;;;;;;;;;;;;;28.12;44.21;100546.00;1649787;87;20236;-74
2021/07/04 09:45:55;;;;;;;;;;;;;;;28.16;44.17;100544.75;1650051;86;20631;-74
2021/07/04 09:48:25;;;;;;;;;;;;;;;28.21;44.03;100545.17;1643029;87;20597;-74
2021/07/04 09:50:52;;;;;;;;;;;;;;;28.20;43.92;100540.83;1645327;87;20182;-74
2021/07/04 09:53:20;;;;;;;;;;;;;;;28.19;43.82;100535.16;1649441;87;20206;-74
2021/07/04 09:55:53;;;;;;;;;;;;;;;28.14;43.68;100534.25;1648705;86;20181;-75
2021/07/04 09:58:20;;;;;;;;;;;;;;;28.11;43.62;100529.70;1649653;87;20194;-74
2021/07/04 10:00:47;;;;;;;;;;;;;;;28.05;43.61;100527.14;1651028;86;20114;-77
2021/07/04 10:03:20;;;;;;;;;;;;;;;28.05;43.78;100524.48;1656350;86;20127;-76
2021/07/04 10:05:56;;;;;;;;;;;;;;;28.14;43.66;100524.95;1632313;87;20157;-76
2021/07/04 10:08:26;;;;;;;;;;;;;;;28.16;43.59;100519.00;1651194;86;20127;-76
2021/07/04 10:10:54;;;;;;;;;;;;;;;28.13;43.40;100519.28;1642233;86;20150;-76
2021/07/04 10:13:21;;;;;;;;;;;;;;;28.15;43.28;100512.48;1639377;86;20116;-76
2021/07/04 10:15:47;;;;;;;;;;;;;;;28.01;43.25;100513.77;1652021;87;20110;-76
2021/07/04 10:18:14;;;;;;;;;;;;;;;28.05;43.49;100507.20;1645408;86;20189;-76
2021/07/04 10:20:42;;;;;;;;;;;;;;;27.98;43.23;100506.08;1644097;86;20185;-76
2021/07/04 10:23:08;;;;;;;;;;;;;;;27.84;43.29;100506.48;1648721;86;20198;-76
2021/07/04 10:25:34;;;;;;;;;;;;;;;27.78;43.44;100499.90;1649049;86;20201;-76
2021/07/04 10:28:02;;;;;;;;;;;;;;;27.77;43.14;100501.36;1649743;86;20133;-74
2021/07/04 10:30:32;;;;;;;;;;;;;;;27.74;43.17;100496.33;1644344;86;20186;-74
2021/07/04 10:33:06;;;;;;;;;;;;;;;27.81;43.18;100495.64;1635710;86;20169;-74
2021/07/04 10:35:33;;;;;;;;;;;;;;;27.83;43.06;100500.33;1647069;87;20109;-73
2021/07/04 10:38:14;;;;;;;;;;;;;;;27.81;42.95;100495.64;1640858;86;20106;-73
2021/07/04 10:40:40;;;;;;;;;;;;;;;27.85;43.04;100493.55;1639273;86;20210;-73
2021/07/04 10:43:13;;;;;;;;;;;;;;;27.86;42.98;100490.75;1635662;87;20154;-73
2021/07/04 10:45:41;;;;;;;;;;;;;;;27.92;42.99;100496.00;1631948;86;20205;-73
2021/07/04 10:48:18;;;;;;;;;;;;;;;27.97;42.91;100489.29;1632322;86;20210;-73
2021/07/04 10:51:07;;;;;;;;;;;;;;;27.95;42.96;100487.26;1640723;87;20107;-73
2021/07/04 10:53:48;;;;;;;;;;;;;;;27.95;42.90;100488.59;1642150;86;20123;-73
2021/07/04 10:56:37;;;;;;;;;;;;;;;27.92;42.62;100485.37;1640574;87;20102;-73
2021/07/04 10:59:11;;;;;;;;;;;;;;;27.84;42.76;100472.77;1640389;86;20107;-73
2021/07/04 11:01:52;;;;;;;;;;;;;;;27.84;42.82;100473.27;1636196;87;20142;-73
2021/07/04 11:04:38;;;;;;;;;;;;;;;27.87;42.70;100467.67;1640544;86;20106;-73
2021/07/04 11:07:05;;;;;;;;;;;;;;;27.73;42.69;100464.93;1634396;87;20130;-73
2021/07/04 11:09:53;;;;;;;;;;;;;;;27.54;42.75;100453.78;1640822;86;20106;-75
2021/07/04 11:12:26;;;;;;;;;;;;;;;27.52;42.80;100457.06;1629529;87;20127;-75
2021/07/04 11:15:15;;;;;;;;;;;;;;;27.54;42.84;100450.28;1639157;87;36884;-75
2021/07/04 11:18:01;;;;;;;;;;;;;;;27.59;42.75;100450.23;1635941;87;20153;-75
2021/07/04 11:20:30;;;;;;;;;;;;;;;27.62;42.79;100448.62;1632492;86;20126;-75
2021/07/04 11:22:58;;;;;;;;;;;;;;;27.66;42.65;100449.19;1624776;86;20192;-76
2021/07/04 11:25:27;;;;;;;;;;;;;;;27.71;42.60;100440.80;1636969;87;20166;-77
2021/07/04 11:28:13;;;;;;;;;;;;;;;27.70;42.57;100441.30;1636525;87;20126;-77
2021/07/04 11:30:39;;;;;;;;;;;;;;;27.69;42.58;100439.12;1623375;86;20275;-77
2021/07/04 11:33:40;;;;;;;;;;;;;;;27.66;42.36;100433.25;1635156;86;20461;-77
2021/07/04 11:36:20;;;;;;;;;;;;;;;27.58;42.51;100436.56;1631680;87;20576;-76
2021/07/04 11:38:54;;;;;;;;;;;;;;;27.55;42.45;100437.36;1637126;86;20178;-76
2021/07/04 11:41:32;;;;;;;;;;;;;;;27.48;42.45;100433.08;1638559;86;20178;-76
2021/07/04 11:44:08;;;;;;;;;;;;;;;27.53;42.40;100428.20;1637692;87;20150;-76
2021/07/04 11:46:37;;;;;;;;;;;;;;;27.47;42.31;100434.55;1632633;86;20594;-76
2021/07/04 11:49:11;;;;;;;;;;;;;;;27.44;42.38;100430.84;1633907;86;20136;-76
2021/07/04 11:51:49;;;;;;;;;;;;;;;27.40;42.40;100433.41;1640440;87;20161;-76
2021/07/04 11:54:27;;;;;;;;;;;;;;;27.33;42.35;100432.63;1638433;87;20174;-76
2021/07/04 11:57:31;;;;;;;;;;;;;;;27.30;42.34;100430.73;1639160;87;20174;-76
2021/07/04 12:00:08;;;;;;;;;;;;;;;27.21;42.42;100431.06;1636049;87;20619;-76
2021/07/04 12:02:47;;;;;;;;;;;;;;;27.23;42.51;100426.95;1643705;86;20127;-76
2021/07/04 12:05:14;;;;;;;;;;;;;;;27.33;42.42;100423.83;1639881;86;20501;-76
2021/07/04 12:07:41;;;;;;;;;;;;;;;27.40;42.41;100425.45;1640047;86;20134;-76
2021/07/04 12:10:08;;;;;;;;;;;;;;;27.47;42.44;100422.11;1640131;87;20567;-76
2021/07/04 12:12:36;;;;;;;;;;;;;;;27.52;42.38;100414.56;1640936;86;20142;-77
2021/07/04 12:15:06;;;;;;;;;;;;;;;27.65;42.35;100418.28;1640149;87;20194;-78
2021/07/04 12:17:38;;;;;;;;;;;;;;;27.76;42.33;100422.13;1639822;86;20198;-78
2021/07/04 12:20:18;;;;;;;;;;;;;;;27.77;42.10;100403.89;1641043;86;20170;-78
2021/07/04 12:22:52;;;;;;;;;;;;;;;27.70;42.33;100406.75;1639307;87;20476;-78
2021/07/04 12:25:38;;;;;;;;;;;;;;;27.67;42.39;100405.70;1628847;87;20438;-78
2021/07/04 12:28:07;;;;;;;;;;;;;;;27.55;42.33;100402.83;1640053;87;20115;-78
2021/07/04 12:30:37;;;;;;;;;;;;;;;27.49;42.37;100402.89;1640337;87;20131;-78
2021/07/04 12:33:13;;;;;;;;;;;;;;;27.52;42.48;100399.11;1641750;86;20107;-79
2021/07/04 12:35:44;;;;;;;;;;;;;;;27.53;42.39;100401.63;1633999;86;20434;-78
2021/07/04 12:38:17;;;;;;;;;;;;;;;27.55;42.47;100396.19;1619861;88;20522;-78
2021/07/04 12:41:05;;;;;;;;;;;;;;;27.60;42.34;100397.45;1626867;87;20411;-79
2021/07/04 12:43:39;;;;;;;;;;;;;;;27.67;42.30;100392.41;1626760;87;20126;-79